createdAt,value
2019-03-06T00:03:55.292Z,64.40
2019-03-06T00:07:59.953Z,64.34
2019-03-06T00:12:04.376Z,64.55
2019-03-06T00:16:09.294Z,64.49
2019-03-06T00:20:13.525Z,64.26
2019-03-06T00:24:17.997Z,64.30
2019-03-06T00:28:22.300Z,64.41
2019-03-06T00:32:28.295Z,64.68
2019-03-06T00:36:33.922Z,64.32
2019-03-06T00:41:06.229Z,64.12
2019-03-06T00:45:10.532Z,64.48
2019-03-06T00:49:15.916Z,64.52
2019-03-06T00:53:20.243Z,64.49
2019-03-06T00:57:24.493Z,64.70
2019-03-06T01:01:29.369Z,64.94
2019-03-06T01:05:33.559Z,64.98
2019-03-06T01:09:38.511Z,65.14
2019-03-06T01:13:42.665Z,64.97
2019-03-06T01:17:47.539Z,64.96
2019-03-06T01:21:51.733Z,64.72
2019-03-06T01:25:58.266Z,64.81
2019-03-06T01:30:02.471Z,64.86
2019-03-06T01:34:18.085Z,64.80
2019-03-06T01:38:40.771Z,65.06
2019-03-06T01:42:59.385Z,64.94
2019-03-06T01:47:03.860Z,64.93
2019-03-06T01:51:09.067Z,64.97
2019-03-06T01:55:16.563Z,65.23
2019-03-06T01:59:20.776Z,65.03
2019-03-06T02:03:26.518Z,65.30
2019-03-06T02:07:30.679Z,65.04
2019-03-06T02:11:35.570Z,65.16
2019-03-06T02:15:40.033Z,65.17
2019-03-06T02:19:44.525Z,65.02
2019-03-06T02:23:48.847Z,65.17
2019-03-06T02:27:53.159Z,65.05
2019-03-06T02:31:57.701Z,65.01
2019-03-06T02:36:02.093Z,65.22
2019-03-06T02:40:06.549Z,65.17
2019-03-06T02:44:11.035Z,65.24
2019-03-06T02:48:15.253Z,65.52
2019-03-06T02:52:19.891Z,65.47
2019-03-06T02:56:24.196Z,65.54
2019-03-06T03:00:46.283Z,65.39
2019-03-06T03:05:06.170Z,65.38
2019-03-06T03:09:18.740Z,65.35
2019-03-06T03:13:22.967Z,65.39
2019-03-06T03:17:27.426Z,65.26
2019-03-06T03:21:31.683Z,65.12
2019-03-06T03:25:36.237Z,65.06
2019-03-06T03:29:40.491Z,65.00
2019-03-06T03:33:44.811Z,64.94
2019-03-06T03:37:49.032Z,64.86
2019-03-06T03:41:53.235Z,64.74
2019-03-06T03:45:57.459Z,64.63
2019-03-06T03:50:01.695Z,64.52
2019-03-06T03:54:05.904Z,64.57
2019-03-06T03:58:10.154Z,64.78
2019-03-06T04:02:14.863Z,64.89
2019-03-06T04:06:19.745Z,65.05
2019-03-06T04:10:23.994Z,65.08
2019-03-06T04:14:28.199Z,65.54
2019-03-06T04:18:32.442Z,65.32
2019-03-06T04:22:37.008Z,65.53
2019-03-06T04:26:41.254Z,66.05
2019-03-06T04:30:45.459Z,66.28
2019-03-06T04:34:49.897Z,67.13
2019-03-06T04:38:55.218Z,66.21
2019-03-06T04:42:59.720Z,66.36
2019-03-06T04:47:03.992Z,66.26
2019-03-06T04:51:08.195Z,66.47
2019-03-06T04:55:13.436Z,66.31
2019-03-06T04:59:17.611Z,66.32
2019-03-06T05:03:22.026Z,66.07
2019-03-06T05:07:26.318Z,66.07
2019-03-06T05:11:30.526Z,66.21
2019-03-06T05:15:35.105Z,66.10
2019-03-06T05:19:40.954Z,66.47
2019-03-06T05:23:45.287Z,66.43
2019-03-06T05:27:49.945Z,66.35
2019-03-06T05:32:25.711Z,66.23
2019-03-06T05:36:59.409Z,66.06
2019-03-06T05:41:03.598Z,65.95
2019-03-06T05:45:08.491Z,66.17
2019-03-06T05:49:12.669Z,66.40
2019-03-06T05:53:17.022Z,66.74
2019-03-06T05:57:21.418Z,66.68
2019-03-06T06:01:25.756Z,66.61
2019-03-06T06:05:30.226Z,67.04
2019-03-06T06:09:34.605Z,67.83
2019-03-06T06:13:38.913Z,68.12
2019-03-06T06:17:43.210Z,67.85
2019-03-06T06:22:04.707Z,68.49
2019-03-06T06:26:08.900Z,68.74
2019-03-06T06:30:14.542Z,68.90
2019-03-06T06:34:19.949Z,69.15
2019-03-06T06:38:24.235Z,69.14
2019-03-06T06:42:28.530Z,69.63
2019-03-06T06:46:32.816Z,68.23
2019-03-06T06:50:37.519Z,68.00
2019-03-06T06:54:53.049Z,68.12
2019-03-06T06:59:30.838Z,67.91
2019-03-06T07:04:21.754Z,68.08
2019-03-06T07:08:46.618Z,67.61
2019-03-06T07:13:28.215Z,67.52
2019-03-06T07:17:38.809Z,67.82
2019-03-06T07:22:02.123Z,67.76
2019-03-06T07:26:30.592Z,68.52
2019-03-06T07:31:12.012Z,68.07
2019-03-06T07:36:16.414Z,68.19
2019-03-06T07:40:26.852Z,68.63
2019-03-06T07:44:50.234Z,68.87
2019-03-06T07:49:16.326Z,68.95
2019-03-06T07:53:52.820Z,68.69
2019-03-06T07:58:32.995Z,68.40
2019-03-06T08:02:57.326Z,68.14
2019-03-06T08:07:07.279Z,67.75
2019-03-06T08:11:19.946Z,67.51
2019-03-06T08:15:33.920Z,67.14
2019-03-06T08:19:57.102Z,66.82
2019-03-06T08:24:23.538Z,66.55
2019-03-06T08:28:27.778Z,66.44
2019-03-06T08:32:33.546Z,66.04
2019-03-06T08:36:37.775Z,65.72
2019-03-06T08:40:42.118Z,65.57
2019-03-06T08:44:46.339Z,65.41
2019-03-06T08:48:58.958Z,64.99
2019-03-06T08:53:19.308Z,64.98
2019-03-06T08:57:48.695Z,64.78
2019-03-06T09:02:15.824Z,64.36
2019-03-06T09:06:48.107Z,64.62
2019-03-06T09:11:23.356Z,64.14
2019-03-06T09:15:38.067Z,63.81
2019-03-06T09:20:16.780Z,62.82
2019-03-06T09:24:46.452Z,63.02
2019-03-06T09:33:12.660Z,62.35
2019-03-06T09:37:27.568Z,62.19
2019-03-06T09:41:53.506Z,61.60
2019-03-06T09:46:19.737Z,61.35
2019-03-06T09:50:29.043Z,60.40
2019-03-06T09:54:47.717Z,60.48
2019-03-06T09:59:06.388Z,59.45
2019-03-06T10:03:35.509Z,59.17
2019-03-06T10:07:50.849Z,59.23
2019-03-06T10:12:17.004Z,57.66
2019-03-06T10:16:25.774Z,56.22
2019-03-06T10:20:30.024Z,57.07
2019-03-06T10:24:34.276Z,55.26
2019-03-06T10:28:38.478Z,55.98
2019-03-06T10:32:43.311Z,55.41
2019-03-06T10:36:47.550Z,55.31
2019-03-06T10:40:51.775Z,53.23
2019-03-06T10:44:55.953Z,53.25
2019-03-06T10:49:00.171Z,52.95
2019-03-06T10:53:04.745Z,52.58
2019-03-06T10:57:09.192Z,52.37
2019-03-06T11:01:14.002Z,52.37
2019-03-06T11:05:26.263Z,52.38
2019-03-06T11:09:30.839Z,50.32
2019-03-06T11:13:35.071Z,51.36
2019-03-06T11:17:39.886Z,50.34
2019-03-06T11:21:44.373Z,50.34
2019-03-06T11:25:49.792Z,48.89
2019-03-06T11:29:54.003Z,49.10
2019-03-06T11:33:58.385Z,49.44
2019-03-06T11:38:02.729Z,48.77
2019-03-06T11:42:07.101Z,49.77
2019-03-06T11:46:11.716Z,48.62
2019-03-06T11:50:16.637Z,48.42
2019-03-06T11:54:20.852Z,47.87
2019-03-06T11:58:25.075Z,48.83
2019-03-06T12:02:29.269Z,47.85
2019-03-06T12:06:33.499Z,47.85
2019-03-06T12:10:38.175Z,47.19
2019-03-06T12:14:42.589Z,47.43
2019-03-06T12:18:47.642Z,47.34
2019-03-06T12:22:52.046Z,47.53
2019-03-06T12:26:56.880Z,47.53
2019-03-06T12:31:01.683Z,46.91
2019-03-06T12:35:06.573Z,46.07
2019-03-06T12:39:11.574Z,46.50
2019-03-06T12:43:16.258Z,46.57
2019-03-06T12:47:20.654Z,46.26
2019-03-06T12:51:26.547Z,46.31
2019-03-06T12:55:32.044Z,45.78
2019-03-06T12:59:36.260Z,46.19
2019-03-06T13:03:41.074Z,46.20
2019-03-06T13:07:45.316Z,45.65
2019-03-06T13:11:50.590Z,45.96
2019-03-06T13:15:55.178Z,45.84
2019-03-06T13:20:00.344Z,44.03
2019-03-06T13:24:05.338Z,45.00
2019-03-06T13:28:10.307Z,44.58
2019-03-06T13:32:15.710Z,44.84
2019-03-06T13:36:20.388Z,45.44
2019-03-06T13:40:26.646Z,44.81
2019-03-06T13:44:31.989Z,44.52
2019-03-06T13:48:36.337Z,44.20
2019-03-06T13:52:40.788Z,44.31
2019-03-06T13:56:45.336Z,43.99
2019-03-06T14:00:49.664Z,44.56
2019-03-06T14:04:54.359Z,44.07
2019-03-06T14:08:58.653Z,44.87
2019-03-06T14:13:03.793Z,44.91
2019-03-06T14:17:08.497Z,44.93
2019-03-06T14:21:15.724Z,45.10
2019-03-06T14:25:22.860Z,44.99
2019-03-06T14:29:27.690Z,44.62
2019-03-06T14:33:49.649Z,44.73
2019-03-06T14:37:54.090Z,44.79
2019-03-06T14:42:00.751Z,44.35
2019-03-06T14:46:05.176Z,43.99
2019-03-06T14:50:10.525Z,44.35
2019-03-06T14:54:14.690Z,44.94
2019-03-06T14:58:19.491Z,45.25
2019-03-06T15:02:25.129Z,45.42
2019-03-06T15:06:30.617Z,45.08
2019-03-06T15:10:42.747Z,44.94
2019-03-06T15:14:41.601Z,45.48
2019-03-06T15:18:48.178Z,45.19
2019-03-06T15:22:53.285Z,45.43
2019-03-06T15:26:58.692Z,45.50
2019-03-06T15:31:03.122Z,45.75
2019-03-06T15:35:09.389Z,45.80
2019-03-06T15:39:42.693Z,45.76
2019-03-06T15:43:42.155Z,45.79
2019-03-06T15:47:47.196Z,46.05
2019-03-06T15:51:51.473Z,46.13
2019-03-06T15:55:56.226Z,46.08
2019-03-06T16:00:01.058Z,46.23
2019-03-06T16:04:07.032Z,46.27
2019-03-06T16:08:13.272Z,46.43
2019-03-06T16:12:17.725Z,46.39
2019-03-06T16:16:22.059Z,46.53
2019-03-06T16:20:26.665Z,46.87
2019-03-06T16:24:31.101Z,47.00
2019-03-06T16:28:35.679Z,47.30
2019-03-06T16:32:41.763Z,47.45
2019-03-06T16:36:45.955Z,47.59
2019-03-06T16:40:50.166Z,47.77
2019-03-06T16:44:54.415Z,47.92
2019-03-06T16:48:59.027Z,48.00
2019-03-06T16:53:03.273Z,48.14
2019-03-06T16:57:07.661Z,48.30
2019-03-06T17:01:12.025Z,48.42
2019-03-06T17:05:19.320Z,48.45
2019-03-06T17:09:23.713Z,48.63
2019-03-06T17:13:28.179Z,48.77
2019-03-06T17:17:32.783Z,48.87
2019-03-06T17:21:37.008Z,49.09
2019-03-06T17:25:41.231Z,49.09
2019-03-06T17:29:45.464Z,49.07
2019-03-06T17:33:49.893Z,49.19
2019-03-06T17:37:54.586Z,49.01
2019-03-06T17:41:58.897Z,49.34
2019-03-06T17:46:03.907Z,49.36
2019-03-06T17:50:08.694Z,49.47
2019-03-06T17:54:13.134Z,49.29
2019-03-06T17:58:17.711Z,49.29
2019-03-06T18:02:21.986Z,49.65
2019-03-06T18:06:26.898Z,49.76
2019-03-06T18:10:31.300Z,49.82
2019-03-06T18:14:36.162Z,50.19
2019-03-06T18:18:40.598Z,50.19
2019-03-06T18:22:45.503Z,50.11
2019-03-06T18:26:50.202Z,50.41
2019-03-06T18:30:54.980Z,50.35
2019-03-06T18:34:59.196Z,50.61
2019-03-06T18:39:05.555Z,50.72
2019-03-06T18:43:12.188Z,50.87
2019-03-06T18:47:17.108Z,50.93
2019-03-06T18:51:21.903Z,51.09
2019-03-06T18:55:28.444Z,51.11
2019-03-06T18:59:33.475Z,51.14
2019-03-06T19:07:54.636Z,51.32
2019-03-06T19:11:58.842Z,51.72
2019-03-06T19:16:04.086Z,51.99
2019-03-06T19:20:08.931Z,52.09
2019-03-06T19:24:13.266Z,52.36
2019-03-06T19:28:23.969Z,52.55
2019-03-06T19:32:28.213Z,52.77
2019-03-06T19:36:33.420Z,53.15
2019-03-06T19:40:37.728Z,52.93
2019-03-06T19:44:43.736Z,53.32
2019-03-06T19:48:49.652Z,53.66
2019-03-06T19:52:53.939Z,53.20
2019-03-06T19:56:59.024Z,53.89
2019-03-06T20:01:03.238Z,53.89
2019-03-06T20:05:07.961Z,53.70
2019-03-06T20:09:27.950Z,53.76
2019-03-06T20:13:32.952Z,54.22
2019-03-06T20:17:37.202Z,54.02
2019-03-06T20:25:51.209Z,54.21
2019-03-06T20:29:55.519Z,54.06
2019-03-06T20:33:59.858Z,54.11
2019-03-06T20:38:04.597Z,54.13
2019-03-06T20:42:09.911Z,54.08
2019-03-06T20:46:14.627Z,54.18
2019-03-06T20:50:19.077Z,54.29
2019-03-06T20:54:23.463Z,54.77
2019-03-06T20:58:27.753Z,54.40
2019-03-06T21:02:32.643Z,54.61
2019-03-06T21:06:38.957Z,54.58
2019-03-06T21:10:43.183Z,55.10
2019-03-06T21:14:47.424Z,54.83
2019-03-06T21:18:51.669Z,55.09
2019-03-06T21:22:55.919Z,55.02
2019-03-06T21:27:00.475Z,54.93
2019-03-06T21:31:04.708Z,54.93
2019-03-06T21:35:09.313Z,55.11
2019-03-06T21:39:22.760Z,55.10
2019-03-06T21:43:27.340Z,55.18
2019-03-06T21:47:31.735Z,55.21
2019-03-06T21:51:36.159Z,55.09
2019-03-06T21:55:40.412Z,55.09
2019-03-06T21:59:44.740Z,55.19
2019-03-06T22:03:48.975Z,55.35
2019-03-06T22:07:53.359Z,55.26
2019-03-06T22:11:57.841Z,55.37
2019-03-06T22:16:02.720Z,55.34
2019-03-06T22:20:07.921Z,55.38
2019-03-06T22:24:12.166Z,55.42
2019-03-06T22:28:16.442Z,55.40
2019-03-06T22:32:20.759Z,55.45
2019-03-06T22:36:25.031Z,55.52
2019-03-06T22:40:29.257Z,55.54
2019-03-06T22:44:33.843Z,55.61
2019-03-06T22:48:38.098Z,55.60
2019-03-06T22:52:42.325Z,55.62
2019-03-06T22:56:46.746Z,55.63
2019-03-06T23:00:56.454Z,55.61
2019-03-06T23:05:01.244Z,55.63
2019-03-06T23:09:09.339Z,55.67
2019-03-06T23:13:13.598Z,55.68
2019-03-06T23:17:18.221Z,55.62
2019-03-06T23:21:22.448Z,55.61
2019-03-06T23:25:26.635Z,55.62
2019-03-06T23:29:30.994Z,55.67
2019-03-06T23:33:35.314Z,55.71
2019-03-06T23:37:39.626Z,55.70
2019-03-06T23:41:43.932Z,55.65
2019-03-06T23:45:49.975Z,55.78
2019-03-06T23:49:54.334Z,55.85
2019-03-06T23:53:58.599Z,56.03
2019-03-06T23:58:02.898Z,56.14
